Aérodrome :
LOGIN :

S'inscrire | Disclaimer

   EN    FR    IT 

 










Légende :    VFR   VFR Marginal   IFR   IFR Intensif   IFR Très Intensif
Visi : 
Plafond : 
>= 8 km
>= 3000ft
5 à 8 km
1000 à 3000 ft
1500m à 5 km
500 à 1000 ft
800 à 1500m
200 à 500 ft
< 800m
< 200 ft
Symboles :   Orages  Brouillard  Fortes neiges  Fortes précipitations  Vent > 20 kt
SIGMETs :   Divers  Orages  Givrage  Turbulence  Onde Orograph.  Cendres Volcan.







- Altitude de l'aérodrome : 49 ft
- Code IATA : AOI


LIPY - Ancona Falconara

DERNIER METAR :
  • 111350Z 32008KT 9999 FEW035 10/02 Q1018

METARs EXPIRÉS :
  • 111250Z 30007KT 260V320 9999 FEW035 11/02 Q1018
  • 111150Z VRB02KT 9999 FEW035 10/02 Q1018

TAF TAF LIPY
Valide du 11 à 12h jusqu'au 12 à 12h UTC


111100Z 1112/1212 32012KT 9999 FEW040
TEMPO 1206/1212 SHRA
Pas de NOTAMs connus pour ce terrain.
2 SIGMETs publiés pour la FIR Milano (LIMM) :
 
Turbulence forte
LIMM SIGMET 4 VALID 111440/111800 LIIP
LIMM MILANO FIR SEV TURB FCST W OF LINE N4708 E01115 - N4324 E01342 ABV FL220 MOV E NC=
Turbulence forte
LIMM SIGMET 3 VALID 111040/111440 LIIP
LIMM MILANO FIR SEV TURB FCST WSW OF LINE N4649 E01058 - N4324 E01329 ABV FL230 MOV E NC=



MET'MAP, la Météo Aéronautique d'un coup d'oeil ! - Copyright ORBIFLY Décembre 2007 - Disclaimer

ORBIFLY MET'MAP TEAM :

Programmation & Développement : Alexandra Zaïnal
Conception & Développement : Baudouin d'Aumeries
Co-Programmation & Développement : Marc-Olivier Méhu
Soutien technique & logistique : Manuel Goepfert

Contact : metmap@orbifly.com




SOURCES & CREDITS :

   NOAA